Time;durP1;ratioP1;P1;durP2;ratioP2;P2;SDS_P1;SDS_P2;PMS_P1;PMS_P2;Temp;Humidity;BMP_temperature;BMP_pressure;BME280_temperature;BME280_humidity;BME280_pressure;Samples;Min_cycle;Max_cycle;Signal;HPM_P1;HPM_P2
2021/09/18 00:00:09;;;;;;;;;;;;;;;;;;5094057;28;19916;-79
2021/09/18 00:02:35;;;;;;;;;;;;;;;;;;5096518;28;20402;-79
2021/09/18 00:05:00;;;;;;;;;;;;;;;;;;5088224;28;19926;-79
2021/09/18 00:22:40;;;;;;;;;;;;;;;;;;5098238;28;19923;-80
2021/09/18 00:25:05;;;;;;;;;;;;;;;;;;5098080;28;19916;-80
2021/09/18 00:27:31;;;;;;;;;;;;;;;;;;5097978;28;19916;-78
2021/09/18 00:29:56;;;;;;;;;;;;;;;;;;5096706;28;20378;-79
2021/09/18 00:32:22;;;;;;;;;;;;;;;;;;5097963;28;20387;-79
2021/09/18 00:34:47;;;;;;;;;;;;;;;;;;5097685;28;20440;-80
2021/09/18 00:37:12;;;;;;;;;;;;;;;;;;5097810;28;19920;-79
2021/09/18 00:39:38;;;;;;;;;;;;;;;;;;5097737;28;20018;-80
2021/09/18 00:42:03;;;;;;;;;;;;;;;;;;5097978;28;19916;-79
2021/09/18 00:44:29;;;;;;;;;;;;;;;;;;5097790;28;19916;-79
2021/09/18 00:46:55;;;;;;;;;;;;;;;;;;5097752;28;19916;-79
2021/09/18 00:49:21;;;;;;;;;;;;;;;;;;5096900;28;20304;-79
2021/09/18 00:51:46;;;;;;;;;;;;;;;;;;5097743;28;19916;-79
2021/09/18 00:54:13;;;;;;;;;;;;;;;;;;5097268;28;19920;-79
2021/09/18 00:56:39;;;;;;;;;;;;;;;;;;5097366;28;20368;-81
2021/09/18 00:59:05;;;;;;;;;;;;;;;;;;5096056;28;19920;-79
2021/09/18 01:01:30;;;;;;;;;;;;;;;;;;5097263;28;19923;-79
2021/09/18 01:03:55;;;;;;;;;;;;;;;;;;5097588;28;19980;-79
2021/09/18 01:06:21;;;;;;;;;;;;;;;;;;5078947;28;19924;-79
2021/09/18 01:09:07;;;;;;;;;;;;;;;;;;5097201;28;19920;-79
2021/09/18 01:11:32;;;;;;;;;;;;;;;;;;5095536;28;20273;-79
2021/09/18 01:13:58;;;;;;;;;;;;;;;;;;5095859;28;19969;-79
2021/09/18 01:16:24;;;;;;;;;;;;;;;;;;5097175;28;19917;-79
2021/09/18 01:18:49;;;;;;;;;;;;;;;;;;5096883;28;19942;-80
2021/09/18 01:21:15;;;;;;;;;;;;;;;;;;5097190;28;20435;-81
2021/09/18 01:23:41;;;;;;;;;;;;;;;;;;5096381;28;19959;-80
2021/09/18 01:26:08;;;;;;;;;;;;;;;;;;5096197;28;19923;-79
2021/09/18 01:28:33;;;;;;;;;;;;;;;;;;5096720;28;19920;-79
2021/09/18 01:30:59;;;;;;;;;;;;;;;;;;5096749;28;19969;-79
2021/09/18 01:33:24;;;;;;;;;;;;;;;;;;5096696;28;19973;-79
2021/09/18 01:35:50;;;;;;;;;;;;;;;;;;5095126;28;19916;-79
2021/09/18 01:38:15;;;;;;;;;;;;;;;;;;5096617;28;19916;-79
2021/09/18 01:40:42;;;;;;;;;;;;;;;;;;5096558;28;19914;-80
2021/09/18 01:43:08;;;;;;;;;;;;;;;;;;5096472;28;20061;-79
2021/09/18 01:45:34;;;;;;;;;;;;;;;;;;5096479;28;19923;-79
2021/09/18 01:48:01;;;;;;;;;;;;;;;;;;5096494;28;19912;-79
2021/09/18 01:50:37;;;;;;;;;;;;;;;;;;5096378;28;19924;-79
2021/09/18 01:53:07;;;;;;;;;;;;;;;;;;5096539;28;20336;-79
2021/09/18 01:55:32;;;;;;;;;;;;;;;;;;5096326;28;19923;-79
2021/09/18 01:57:59;;;;;;;;;;;;;;;;;;5096212;28;20003;-80
2021/09/18 02:00:24;;;;;;;;;;;;;;;;;;5096187;28;19961;-79
2021/09/18 02:02:50;;;;;;;;;;;;;;;;;;5096216;28;19916;-79
2021/09/18 02:05:18;;;;;;;;;;;;;;;;;;5096029;28;19961;-79
2021/09/18 02:07:44;;;;;;;;;;;;;;;;;;5096151;28;20380;-79
2021/09/18 02:10:11;;;;;;;;;;;;;;;;;;5095995;28;19916;-79
2021/09/18 02:12:37;;;;;;;;;;;;;;;;;;5095946;28;19916;-80
2021/09/18 02:15:03;;;;;;;;;;;;;;;;;;5094673;28;19941;-79
2021/09/18 02:17:28;;;;;;;;;;;;;;;;;;5095931;28;20265;-79
2021/09/18 02:19:53;;;;;;;;;;;;;;;;;;5095805;28;19924;-79
2021/09/18 02:22:19;;;;;;;;;;;;;;;;;;5094434;28;19928;-79
2021/09/18 02:24:44;;;;;;;;;;;;;;;;;;5095724;28;20008;-79
2021/09/18 02:27:10;;;;;;;;;;;;;;;;;;5095646;28;20394;-80
2021/09/18 02:29:35;;;;;;;;;;;;;;;;;;5095606;28;20331;-79
2021/09/18 02:32:01;;;;;;;;;;;;;;;;;;5095593;28;19916;-79
2021/09/18 02:34:27;;;;;;;;;;;;;;;;;;5095986;28;20040;-79
2021/09/18 02:36:52;;;;;;;;;;;;;;;;;;5095475;28;19959;-78
2021/09/18 02:39:17;;;;;;;;;;;;;;;;;;5095430;28;19951;-79
2021/09/18 02:41:43;;;;;;;;;;;;;;;;;;5095441;28;20025;-79
2021/09/18 02:44:08;;;;;;;;;;;;;;;;;;5095268;28;19969;-79
2021/09/18 02:46:34;;;;;;;;;;;;;;;;;;5095537;28;19985;-79
2021/09/18 02:48:59;;;;;;;;;;;;;;;;;;5095589;28;20356;-79
2021/09/18 02:51:24;;;;;;;;;;;;;;;;;;5095476;28;20372;-79
2021/09/18 02:53:50;;;;;;;;;;;;;;;;;;5094955;28;19920;-79
2021/09/18 02:56:16;;;;;;;;;;;;;;;;;;5095075;28;19928;-79
2021/09/18 02:58:41;;;;;;;;;;;;;;;;;;5095005;28;19916;-79
2021/09/18 03:01:06;;;;;;;;;;;;;;;;;;5095041;28;19919;-79
2021/09/18 03:03:32;;;;;;;;;;;;;;;;;;5094909;28;19916;-79
2021/09/18 03:05:57;;;;;;;;;;;;;;;;;;5094912;28;19935;-79
2021/09/18 03:08:23;;;;;;;;;;;;;;;;;;5094731;28;19931;-79
2021/09/18 03:10:48;;;;;;;;;;;;;;;;;;5095122;28;19916;-79
2021/09/18 03:13:13;;;;;;;;;;;;;;;;;;5095068;28;19912;-79
2021/09/18 03:15:39;;;;;;;;;;;;;;;;;;5094670;28;20383;-79
2021/09/18 03:18:04;;;;;;;;;;;;;;;;;;5094760;28;19959;-79
2021/09/18 03:20:30;;;;;;;;;;;;;;;;;;5093381;28;20022;-79
2021/09/18 03:22:55;;;;;;;;;;;;;;;;;;5094747;28;19916;-78
2021/09/18 03:25:20;;;;;;;;;;;;;;;;;;5094780;28;19923;-80
2021/09/18 03:27:46;;;;;;;;;;;;;;;;;;5094461;28;19924;-78
2021/09/18 03:30:12;;;;;;;;;;;;;;;;;;5094700;28;20284;-79
2021/09/18 03:32:37;;;;;;;;;;;;;;;;;;5094431;28;20376;-79
2021/09/18 03:35:03;;;;;;;;;;;;;;;;;;5094331;28;19922;-78
2021/09/18 03:37:29;;;;;;;;;;;;;;;;;;5094444;28;19924;-78
2021/09/18 03:39:55;;;;;;;;;;;;;;;;;;5094344;28;19928;-82
2021/09/18 03:42:21;;;;;;;;;;;;;;;;;;5094316;28;20019;-81
2021/09/18 03:44:48;;;;;;;;;;;;;;;;;;5094277;28;19996;-80
2021/09/18 03:47:14;;;;;;;;;;;;;;;;;;5092384;28;19916;-80
2021/09/18 03:49:40;;;;;;;;;;;;;;;;;;5092877;28;19916;-80
2021/09/18 03:52:05;;;;;;;;;;;;;;;;;;5092889;28;19973;-81
2021/09/18 03:54:31;;;;;;;;;;;;;;;;;;5093935;28;19927;-80
2021/09/18 03:56:56;;;;;;;;;;;;;;;;;;5094691;28;19923;-80
2021/09/18 03:59:22;;;;;;;;;;;;;;;;;;5094074;28;20321;-81
2021/09/18 04:01:47;;;;;;;;;;;;;;;;;;5094039;28;19917;-81
2021/09/18 04:04:12;;;;;;;;;;;;;;;;;;5093971;28;19916;-80
2021/09/18 04:06:38;;;;;;;;;;;;;;;;;;5092899;28;19917;-80
2021/09/18 04:09:03;;;;;;;;;;;;;;;;;;5094042;28;19916;-80
2021/09/18 04:11:29;;;;;;;;;;;;;;;;;;5093101;28;20272;-79
2021/09/18 04:13:54;;;;;;;;;;;;;;;;;;5095317;28;20295;-80
2021/09/18 04:16:20;;;;;;;;;;;;;;;;;;5097265;28;19922;-80
2021/09/18 04:18:46;;;;;;;;;;;;;;;;;;5091236;28;19962;-80
2021/09/18 04:21:11;;;;;;;;;;;;;;;;;;5088398;28;19967;-79
2021/09/18 04:23:36;;;;;;;;;;;;;;;;;;5094898;28;19913;-81
2021/09/18 04:26:02;;;;;;;;;;;;;;;;;;5094488;28;19923;-80
2021/09/18 04:28:28;;;;;;;;;;;;;;;;;;5093965;28;19912;-80
2021/09/18 04:30:53;;;;;;;;;;;;;;;;;;5093894;28;19945;-80
2021/09/18 04:33:19;;;;;;;;;;;;;;;;;;5093856;28;19916;-80
2021/09/18 04:35:44;;;;;;;;;;;;;;;;;;5092394;28;19920;-80
2021/09/18 04:38:09;;;;;;;;;;;;;;;;;;5093815;28;19969;-80
2021/09/18 04:40:35;;;;;;;;;;;;;;;;;;5093853;28;19916;-80
2021/09/18 04:43:00;;;;;;;;;;;;;;;;;;5098767;28;19938;-80
2021/09/18 04:45:26;;;;;;;;;;;;;;;;;;5096126;28;20386;-80
2021/09/18 04:47:51;;;;;;;;;;;;;;;;;;5093644;28;19912;-80
2021/09/18 04:50:17;;;;;;;;;;;;;;;;;;5093800;28;19927;-80
2021/09/18 04:52:42;;;;;;;;;;;;;;;;;;5093664;28;19912;-80
2021/09/18 04:55:08;;;;;;;;;;;;;;;;;;5093463;28;19923;-80
2021/09/18 04:57:34;;;;;;;;;;;;;;;;;;5092296;28;20033;-80
2021/09/18 04:59:59;;;;;;;;;;;;;;;;;;5096871;28;20037;-79
2021/09/18 05:02:24;;;;;;;;;;;;;;;;;;5097289;28;20376;-80
2021/09/18 05:04:50;;;;;;;;;;;;;;;;;;5097344;28;19924;-80
2021/09/18 05:07:15;;;;;;;;;;;;;;;;;;5097761;28;19919;-79
2021/09/18 05:09:41;;;;;;;;;;;;;;;;;;5097345;28;19923;-80
2021/09/18 05:12:06;;;;;;;;;;;;;;;;;;5097651;28;20002;-83
2021/09/18 05:14:32;;;;;;;;;;;;;;;;;;5095626;28;19916;-81
2021/09/18 05:16:57;;;;;;;;;;;;;;;;;;5097102;28;19916;-80
2021/09/18 05:19:23;;;;;;;;;;;;;;;;;;5097027;28;19912;-80
2021/09/18 05:21:48;;;;;;;;;;;;;;;;;;5095746;28;19916;-81
2021/09/18 05:24:14;;;;;;;;;;;;;;;;;;5096998;28;19965;-80
2021/09/18 05:26:39;;;;;;;;;;;;;;;;;;5096800;28;19916;-81
2021/09/18 05:29:05;;;;;;;;;;;;;;;;;;5096749;28;19928;-82
2021/09/18 05:31:30;;;;;;;;;;;;;;;;;;5096913;28;19916;-81
2021/09/18 05:33:55;;;;;;;;;;;;;;;;;;5096750;28;20433;-81
2021/09/18 05:36:22;;;;;;;;;;;;;;;;;;5097012;28;19916;-81
2021/09/18 05:38:47;;;;;;;;;;;;;;;;;;5095288;28;19916;-83
2021/09/18 05:41:13;;;;;;;;;;;;;;;;;;5095297;28;20015;-82
2021/09/18 05:43:38;;;;;;;;;;;;;;;;;;5096552;28;19916;-83
2021/09/18 05:46:03;;;;;;;;;;;;;;;;;;5096360;28;19961;-81
2021/09/18 05:48:29;;;;;;;;;;;;;;;;;;5097556;28;19920;-81
2021/09/18 05:50:57;;;;;;;;;;;;;;;;;;5097962;28;19926;-83
2021/09/18 05:53:22;;;;;;;;;;;;;;;;;;5096750;28;19997;-81
2021/09/18 05:55:48;;;;;;;;;;;;;;;;;;5096326;28;19922;-83
2021/09/18 05:58:13;;;;;;;;;;;;;;;;;;5096338;28;19920;-82
2021/09/18 06:00:39;;;;;;;;;;;;;;;;;;5096334;28;19916;-82
2021/09/18 06:03:04;;;;;;;;;;;;;;;;;;5096429;28;19955;-81
2021/09/18 06:05:30;;;;;;;;;;;;;;;;;;5094868;28;20432;-82
2021/09/18 06:07:55;;;;;;;;;;;;;;;;;;5096421;28;20295;-82
2021/09/18 06:10:20;;;;;;;;;;;;;;;;;;5095500;28;20375;-83
2021/09/18 06:12:46;;;;;;;;;;;;;;;;;;5096395;28;20368;-83
2021/09/18 06:15:11;;;;;;;;;;;;;;;;;;5095986;28;20371;-83
2021/09/18 06:17:37;;;;;;;;;;;;;;;;;;5095894;28;19917;-84
2021/09/18 06:20:03;;;;;;;;;;;;;;;;;;5095995;28;20292;-82
2021/09/18 06:22:28;;;;;;;;;;;;;;;;;;5095187;28;19951;-82
2021/09/18 06:24:53;;;;;;;;;;;;;;;;;;5096115;28;19966;-83
2021/09/18 06:27:19;;;;;;;;;;;;;;;;;;5095919;28;19916;-83
2021/09/18 06:29:44;;;;;;;;;;;;;;;;;;5095936;28;19999;-82
2021/09/18 06:32:10;;;;;;;;;;;;;;;;;;5096055;28;20375;-82
2021/09/18 06:34:35;;;;;;;;;;;;;;;;;;5095858;28;19938;-81
2021/09/18 06:37:01;;;;;;;;;;;;;;;;;;5095708;28;19923;-85
2021/09/18 06:39:27;;;;;;;;;;;;;;;;;;5095503;28;20367;-82
2021/09/18 06:41:52;;;;;;;;;;;;;;;;;;5095915;28;19961;-85
2021/09/18 06:44:17;;;;;;;;;;;;;;;;;;5095414;28;19985;-85
2021/09/18 06:46:43;;;;;;;;;;;;;;;;;;5095941;28;19959;-86
2021/09/18 06:49:08;;;;;;;;;;;;;;;;;;5094469;28;19916;-85
2021/09/18 06:51:34;;;;;;;;;;;;;;;;;;5095841;28;20269;-85
2021/09/18 06:53:59;;;;;;;;;;;;;;;;;;5095246;28;19920;-85
2021/09/18 06:56:24;;;;;;;;;;;;;;;;;;5093956;28;19960;-85
2021/09/18 06:58:51;;;;;;;;;;;;;;;;;;5095647;28;20348;-86
2021/09/18 07:01:16;;;;;;;;;;;;;;;;;;5095610;28;19920;-85
2021/09/18 07:03:41;;;;;;;;;;;;;;;;;;5095249;28;19970;-86
2021/09/18 07:06:07;;;;;;;;;;;;;;;;;;5095324;28;20387;-86
2021/09/18 07:08:32;;;;;;;;;;;;;;;;;;5096057;28;19917;-88
2021/09/18 07:10:58;;;;;;;;;;;;;;;;;;5096221;28;19916;-85
2021/09/18 07:13:23;;;;;;;;;;;;;;;;;;5095338;28;20288;-85
2021/09/18 07:15:53;;;;;;;;;;;;;;;;;;5096054;28;20363;-83
2021/09/18 07:18:19;;;;;;;;;;;;;;;;;;5096129;28;19916;-87
2021/09/18 07:20:44;;;;;;;;;;;;;;;;;;5095247;28;19939;-92
2021/09/18 07:23:10;;;;;;;;;;;;;;;;;;5094676;28;19916;-83
2021/09/18 07:25:35;;;;;;;;;;;;;;;;;;5095295;28;19916;-86
2021/09/18 07:28:01;;;;;;;;;;;;;;;;;;5095869;28;19916;-86
2021/09/18 07:30:27;;;;;;;;;;;;;;;;;;5099152;28;19915;-86
2021/09/18 07:32:53;;;;;;;;;;;;;;;;;;5102884;28;20406;-82
2021/09/18 07:35:19;;;;;;;;;;;;;;;;;;5104894;28;19952;-88
2021/09/18 07:37:44;;;;;;;;;;;;;;;;;;5097674;28;19920;-83
2021/09/18 07:40:11;;;;;;;;;;;;;;;;;;5096393;28;19924;-82
2021/09/18 07:42:36;;;;;;;;;;;;;;;;;;5095515;28;19920;-83
2021/09/18 07:45:03;;;;;;;;;;;;;;;;;;5095437;28;20364;-84
2021/09/18 07:47:28;;;;;;;;;;;;;;;;;;5095777;28;19969;-85
2021/09/18 07:49:54;;;;;;;;;;;;;;;;;;5095002;28;19920;-84
2021/09/18 07:52:19;;;;;;;;;;;;;;;;;;5095904;28;19959;-84
2021/09/18 07:54:44;;;;;;;;;;;;;;;;;;5095327;28;19967;-83
2021/09/18 07:57:10;;;;;;;;;;;;;;;;;;5095599;28;19923;-83
2021/09/18 07:59:36;;;;;;;;;;;;;;;;;;5096966;28;19916;-86
2021/09/18 08:02:01;;;;;;;;;;;;;;;;;;5096386;28;19916;-83
2021/09/18 08:04:27;;;;;;;;;;;;;;;;;;5095456;28;20372;-83
2021/09/18 08:06:53;;;;;;;;;;;;;;;;;;5095465;28;19931;-83
2021/09/18 08:09:18;;;;;;;;;;;;;;;;;;5094780;28;19916;-85
2021/09/18 08:11:44;;;;;;;;;;;;;;;;;;5094494;28;19966;-83
2021/09/18 08:14:09;;;;;;;;;;;;;;;;;;5095264;28;19917;-85
2021/09/18 08:16:35;;;;;;;;;;;;;;;;;;5095524;28;19920;-83
2021/09/18 08:19:00;;;;;;;;;;;;;;;;;;5096932;28;19916;-84
2021/09/18 08:21:25;;;;;;;;;;;;;;;;;;5099795;28;19916;-83
2021/09/18 08:23:51;;;;;;;;;;;;;;;;;;5102807;28;19917;-84
2021/09/18 08:26:16;;;;;;;;;;;;;;;;;;5087678;28;19920;-83
2021/09/18 08:28:42;;;;;;;;;;;;;;;;;;5086715;28;19916;-83
2021/09/18 08:31:07;;;;;;;;;;;;;;;;;;5081643;28;20336;-83
2021/09/18 08:33:33;;;;;;;;;;;;;;;;;;5080274;28;20023;-87
2021/09/18 08:35:58;;;;;;;;;;;;;;;;;;5082639;28;19917;-87
2021/09/18 08:38:24;;;;;;;;;;;;;;;;;;5079220;28;20343;-84
2021/09/18 08:40:51;;;;;;;;;;;;;;;;;;5080647;28;19917;-84
2021/09/18 08:43:17;;;;;;;;;;;;;;;;;;5079903;28;20296;-83
2021/09/18 08:45:42;;;;;;;;;;;;;;;;;;5079030;28;19923;-83
2021/09/18 08:48:08;;;;;;;;;;;;;;;;;;5079054;28;19918;-83
2021/09/18 08:50:34;;;;;;;;;;;;;;;;;;5078162;28;19924;-85
2021/09/18 08:52:59;;;;;;;;;;;;;;;;;;5080053;28;19960;-85
2021/09/18 08:55:24;;;;;;;;;;;;;;;;;;5077465;28;19928;-86
2021/09/18 08:57:50;;;;;;;;;;;;;;;;;;5080358;28;19916;-84
2021/09/18 09:00:34;;;;;;;;;;;;;;;;;;5078674;28;19960;-84
2021/09/18 09:03:04;;;;;;;;;;;;;;;;;;5077977;28;20345;-84
2021/09/18 09:05:31;;;;;;;;;;;;;;;;;;5077942;28;20384;-84
2021/09/18 09:08:05;;;;;;;;;;;;;;;;;;5077834;28;20360;-84
2021/09/18 09:10:31;;;;;;;;;;;;;;;;;;5076276;28;20376;-84
2021/09/18 09:13:03;;;;;;;;;;;;;;;;;;5077825;28;20018;-85
2021/09/18 09:15:29;;;;;;;;;;;;;;;;;;5078076;28;19969;-83
2021/09/18 09:17:54;;;;;;;;;;;;;;;;;;5077718;28;19917;-85
2021/09/18 09:20:23;;;;;;;;;;;;;;;;;;5077767;28;19913;-84
2021/09/18 09:22:50;;;;;;;;;;;;;;;;;;5077236;28;19917;-83
2021/09/18 09:25:24;;;;;;;;;;;;;;;;;;5081237;28;19927;-84
2021/09/18 09:27:49;;;;;;;;;;;;;;;;;;5085651;28;19912;-84
2021/09/18 09:30:25;;;;;;;;;;;;;;;;;;5082142;28;19921;-86
2021/09/18 09:32:50;;;;;;;;;;;;;;;;;;5079184;28;19912;-83
2021/09/18 09:35:15;;;;;;;;;;;;;;;;;;5077082;28;19924;-84
2021/09/18 09:37:51;;;;;;;;;;;;;;;;;;5077606;28;19938;-84
2021/09/18 09:40:28;;;;;;;;;;;;;;;;;;5078342;28;19916;-84
2021/09/18 09:42:55;;;;;;;;;;;;;;;;;;5077908;28;20391;-84
2021/09/18 09:45:22;;;;;;;;;;;;;;;;;;5076058;28;19916;-84
2021/09/18 09:47:59;;;;;;;;;;;;;;;;;;5077725;28;19916;-84
2021/09/18 09:50:25;;;;;;;;;;;;;;;;;;5077681;28;19916;-84
2021/09/18 09:52:50;;;;;;;;;;;;;;;;;;5076892;28;19924;-83
2021/09/18 09:55:17;;;;;;;;;;;;;;;;;;5076975;28;19920;-82
2021/09/18 09:57:44;;;;;;;;;;;;;;;;;;5076904;28;20420;-84
2021/09/18 10:00:11;;;;;;;;;;;;;;;;;;5076700;28;19912;-87
2021/09/18 10:02:37;;;;;;;;;;;;;;;;;;5076802;28;19916;-86
2021/09/18 10:05:06;;;;;;;;;;;;;;;;;;5077588;28;19919;-88
2021/09/18 10:07:32;;;;;;;;;;;;;;;;;;5075310;28;19916;-83
2021/09/18 10:09:58;;;;;;;;;;;;;;;;;;5076659;28;19923;-82
2021/09/18 10:12:24;;;;;;;;;;;;;;;;;;5076004;28;20384;-84
2021/09/18 10:14:52;;;;;;;;;;;;;;;;;;5076105;28;19963;-82
2021/09/18 10:17:18;;;;;;;;;;;;;;;;;;5077294;28;19916;-83
2021/09/18 10:25:11;;;;;;;;;;;;;;;;;;5076687;28;19928;-83
2021/09/18 10:27:37;;;;;;;;;;;;;;;;;;5076822;28;20442;-85
2021/09/18 10:30:02;;;;;;;;;;;;;;;;;;5077082;28;20061;-83
2021/09/18 10:32:28;;;;;;;;;;;;;;;;;;5075105;28;19917;-84
2021/09/18 10:35:10;;;;;;;;;;;;;;;;;;5076690;28;20348;-84
2021/09/18 10:37:37;;;;;;;;;;;;;;;;;;5076360;28;20002;-85
2021/09/18 10:40:04;;;;;;;;;;;;;;;;;;5076640;28;19912;-85
2021/09/18 10:42:34;;;;;;;;;;;;;;;;;;5077234;28;19939;-85
2021/09/18 10:44:59;;;;;;;;;;;;;;;;;;5076475;28;19912;-88
2021/09/18 10:47:52;;;;;;;;;;;;;;;;;;5075047;28;19920;-85
2021/09/18 11:03:58;;;;;;;;;;;;;;;;;;5053971;28;19966;-87
2021/09/18 11:06:40;;;;;;;;;;;;;;;;;;5074729;28;19921;-82
2021/09/18 11:09:06;;;;;;;;;;;;;;;;;;5074671;28;19931;-84
2021/09/18 11:11:31;;;;;;;;;;;;;;;;;;5075126;28;19917;-82
2021/09/18 11:13:58;;;;;;;;;;;;;;;;;;5074657;28;20327;-81
2021/09/18 11:16:24;;;;;;;;;;;;;;;;;;5074867;28;20008;-82
2021/09/18 11:18:56;;;;;;;;;;;;;;;;;;5076674;28;19956;-83
2021/09/18 11:21:32;;;;;;;;;;;;;;;;;;5076001;28;20003;-83
2021/09/18 11:23:59;;;;;;;;;;;;;;;;;;5076009;28;19923;-84
2021/09/18 11:26:42;;;;;;;;;;;;;;;;;;5075148;28;19912;-84
2021/09/18 11:29:08;;;;;;;;;;;;;;;;;;5075218;28;19922;-85
2021/09/18 11:31:33;;;;;;;;;;;;;;;;;;5075056;28;19912;-85
2021/09/18 11:33:59;;;;;;;;;;;;;;;;;;5073927;28;19917;-84
2021/09/18 11:36:24;;;;;;;;;;;;;;;;;;5075059;28;19924;-84
2021/09/18 11:38:50;;;;;;;;;;;;;;;;;;5074808;28;19916;-84
2021/09/18 11:41:15;;;;;;;;;;;;;;;;;;5074594;28;19920;-84
2021/09/18 11:43:42;;;;;;;;;;;;;;;;;;5074129;28;19923;-83
2021/09/18 11:46:08;;;;;;;;;;;;;;;;;;5074120;28;19917;-83
2021/09/18 11:48:34;;;;;;;;;;;;;;;;;;5074324;28;19917;-85
2021/09/18 11:51:00;;;;;;;;;;;;;;;;;;5074011;28;19923;-84
2021/09/18 11:54:02;;;;;;;;;;;;;;;;;;5076842;28;20407;-86
2021/09/18 11:56:28;;;;;;;;;;;;;;;;;;5074589;28;19917;-85
2021/09/18 11:58:53;;;;;;;;;;;;;;;;;;5074765;28;20257;-86
2021/09/18 12:01:18;;;;;;;;;;;;;;;;;;5074295;28;19939;-83
2021/09/18 12:03:44;;;;;;;;;;;;;;;;;;5074335;28;20016;-83
2021/09/18 12:06:11;;;;;;;;;;;;;;;;;;5076968;28;19916;-83
2021/09/18 12:08:37;;;;;;;;;;;;;;;;;;5077336;28;20350;-84
2021/09/18 12:11:10;;;;;;;;;;;;;;;;;;5074887;28;20426;-88
2021/09/18 12:13:37;;;;;;;;;;;;;;;;;;5076669;28;19920;-83
2021/09/18 12:16:03;;;;;;;;;;;;;;;;;;5073662;28;19916;-84
2021/09/18 12:18:39;;;;;;;;;;;;;;;;;;5075557;28;19916;-84
2021/09/18 12:21:07;;;;;;;;;;;;;;;;;;5072955;28;19923;-84
2021/09/18 12:23:33;;;;;;;;;;;;;;;;;;5073769;28;20003;-84
2021/09/18 12:26:00;;;;;;;;;;;;;;;;;;5075619;28;19924;-83
2021/09/18 12:28:26;;;;;;;;;;;;;;;;;;5073035;28;19920;-85
2021/09/18 12:30:52;;;;;;;;;;;;;;;;;;5073798;28;19917;-87
2021/09/18 12:33:27;;;;;;;;;;;;;;;;;;5073873;28;19917;-84
2021/09/18 12:36:00;;;;;;;;;;;;;;;;;;5075028;28;20045;-90
2021/09/18 12:38:27;;;;;;;;;;;;;;;;;;5075829;28;20411;-85
2021/09/18 12:40:58;;;;;;;;;;;;;;;;;;5076387;28;19995;-85
2021/09/18 12:43:23;;;;;;;;;;;;;;;;;;5099088;28;20376;-84
2021/09/18 12:45:50;;;;;;;;;;;;;;;;;;5103067;28;19957;-81
2021/09/18 12:48:17;;;;;;;;;;;;;;;;;;5094553;28;19978;-82
2021/09/18 12:50:47;;;;;;;;;;;;;;;;;;5093550;28;19916;-87
2021/09/18 12:53:39;;;;;;;;;;;;;;;;;;5092955;28;20317;-85
2021/09/18 12:56:08;;;;;;;;;;;;;;;;;;5092180;28;19969;-84
2021/09/18 12:58:34;;;;;;;;;;;;;;;;;;5094143;28;19920;-84
2021/09/18 13:01:00;;;;;;;;;;;;;;;;;;5092812;28;20025;-84
2021/09/18 13:03:26;;;;;;;;;;;;;;;;;;5093801;28;19920;-84
2021/09/18 13:05:56;;;;;;;;;;;;;;;;;;5094510;28;19927;-83
2021/09/18 13:08:21;;;;;;;;;;;;;;;;;;5092422;28;19916;-84
2021/09/18 13:10:47;;;;;;;;;;;;;;;;;;5092578;28;20070;-84
2021/09/18 13:13:41;;;;;;;;;;;;;;;;;;5092446;28;19970;-84
2021/09/18 13:16:07;;;;;;;;;;;;;;;;;;5084495;28;19951;-85
2021/09/18 13:18:33;;;;;;;;;;;;;;;;;;5093577;28;19918;-85
2021/09/18 13:20:58;;;;;;;;;;;;;;;;;;5094755;28;19916;-86
2021/09/18 13:23:27;;;;;;;;;;;;;;;;;;5100741;28;19916;-85
2021/09/18 13:25:52;;;;;;;;;;;;;;;;;;5095921;28;19969;-85
2021/09/18 13:28:18;;;;;;;;;;;;;;;;;;5098848;28;19920;-87
2021/09/18 13:30:43;;;;;;;;;;;;;;;;;;5098310;28;19920;-85
2021/09/18 13:33:09;;;;;;;;;;;;;;;;;;5097267;28;19916;-86
2021/09/18 13:35:34;;;;;;;;;;;;;;;;;;5099068;28;19916;-90
2021/09/18 13:38:00;;;;;;;;;;;;;;;;;;5097561;28;19946;-90
2021/09/18 13:40:46;;;;;;;;;;;;;;;;;;5097559;28;19981;-90
2021/09/18 13:48:38;;;;;;;;;;;;;;;;;;5093163;23;19925;-90
2021/09/18 13:51:04;;;;;;;;;;;;;;;;;;5044291;28;20438;-84
2021/09/18 13:53:30;;;;;;;;;;;;;;;;;;5056006;28;20261;-85
2021/09/18 13:55:55;;;;;;;;;;;;;;;;;;5055829;28;19917;-89
2021/09/18 13:58:27;;;;;;;;;;;;;;;;;;5055826;28;20373;-91
2021/09/18 14:00:54;;;;;;;;;;;;;;;;;;5056028;28;19956;-91
2021/09/18 14:03:19;;;;;;;;;;;;;;;;;;5055798;28;19971;-87
2021/09/18 14:05:45;;;;;;;;;;;;;;;;;;5055367;28;19917;-87
2021/09/18 14:08:10;;;;;;;;;;;;;;;;;;5055755;28;19917;-87
2021/09/18 14:10:36;;;;;;;;;;;;;;;;;;5056533;28;19917;-87
2021/09/18 14:13:02;;;;;;;;;;;;;;;;;;5056819;28;19924;-90
2021/09/18 14:15:27;;;;;;;;;;;;;;;;;;5056540;28;19927;-90
2021/09/18 14:17:53;;;;;;;;;;;;;;;;;;5060119;28;19916;-90
2021/09/18 14:20:18;;;;;;;;;;;;;;;;;;5060694;28;19925;-90
2021/09/18 14:22:45;;;;;;;;;;;;;;;;;;5057758;28;20007;-90
2021/09/18 14:25:41;;;;;;;;;;;;;;;;;;5061088;28;19917;-90
2021/09/18 14:28:06;;;;;;;;;;;;;;;;;;5060628;28;19917;-90
2021/09/18 14:30:32;;;;;;;;;;;;;;;;;;5060548;28;19916;-89
2021/09/18 14:32:57;;;;;;;;;;;;;;;;;;5058761;28;19943;-89
2021/09/18 14:35:23;;;;;;;;;;;;;;;;;;5057874;28;19924;-90
2021/09/18 14:37:48;;;;;;;;;;;;;;;;;;5057599;28;20292;-88
2021/09/18 14:40:14;;;;;;;;;;;;;;;;;;5058631;28;19966;-86
2021/09/18 14:42:40;;;;;;;;;;;;;;;;;;5055393;28;19928;-88
2021/09/18 14:45:06;;;;;;;;;;;;;;;;;;5054165;28;19932;-88
2021/09/18 14:50:34;;;;;;;;;;;;;;;;;;5551220;23;19932;-88
2021/09/18 14:52:59;;;;;;;;;;;;;;;;;;5038375;28;19921;-89
2021/09/18 14:55:25;;;;;;;;;;;;;;;;;;5037071;28;19917;-88
2021/09/18 14:57:51;;;;;;;;;;;;;;;;;;5033983;28;19944;-87
2021/09/18 15:00:16;;;;;;;;;;;;;;;;;;5035319;28;19924;-86
2021/09/18 15:02:42;;;;;;;;;;;;;;;;;;5035173;28;19917;-86
2021/09/18 15:05:08;;;;;;;;;;;;;;;;;;5039790;28;19917;-88
2021/09/18 15:07:34;;;;;;;;;;;;;;;;;;5040619;28;19917;-86
2021/09/18 15:10:03;;;;;;;;;;;;;;;;;;5040573;28;19924;-87
2021/09/18 15:12:32;;;;;;;;;;;;;;;;;;5038817;28;19918;-87
2021/09/18 15:14:57;;;;;;;;;;;;;;;;;;5038989;28;20431;-86
2021/09/18 15:17:23;;;;;;;;;;;;;;;;;;5038559;28;19921;-86
2021/09/18 15:19:49;;;;;;;;;;;;;;;;;;5038868;28;19917;-87
2021/09/18 15:22:15;;;;;;;;;;;;;;;;;;5037692;28;20388;-88
2021/09/18 15:24:40;;;;;;;;;;;;;;;;;;5036791;28;19923;-86
2021/09/18 15:27:12;;;;;;;;;;;;;;;;;;5036466;28;19940;-88
2021/09/18 15:29:37;;;;;;;;;;;;;;;;;;5038943;28;20289;-87
2021/09/18 15:32:03;;;;;;;;;;;;;;;;;;5038055;28;20015;-87
2021/09/18 15:34:28;;;;;;;;;;;;;;;;;;5039278;28;19918;-86
2021/09/18 15:36:54;;;;;;;;;;;;;;;;;;5039013;28;20012;-82
2021/09/18 15:39:19;;;;;;;;;;;;;;;;;;5036449;28;20020;-85
2021/09/18 15:41:45;;;;;;;;;;;;;;;;;;5034923;28;19917;-86
2021/09/18 15:44:11;;;;;;;;;;;;;;;;;;5037660;28;19924;-86
2021/09/18 15:46:36;;;;;;;;;;;;;;;;;;5038885;28;19917;-86
2021/09/18 15:49:02;;;;;;;;;;;;;;;;;;5037097;28;20016;-85
2021/09/18 15:51:27;;;;;;;;;;;;;;;;;;5039191;28;19921;-84
2021/09/18 15:53:53;;;;;;;;;;;;;;;;;;5038673;28;20357;-83
2021/09/18 15:56:18;;;;;;;;;;;;;;;;;;5036340;28;19959;-82
2021/09/18 15:58:43;;;;;;;;;;;;;;;;;;5034575;28;19979;-85
2021/09/18 16:01:09;;;;;;;;;;;;;;;;;;5033548;28;19917;-88
2021/09/18 16:03:35;;;;;;;;;;;;;;;;;;5034191;28;19917;-84
2021/09/18 16:06:03;;;;;;;;;;;;;;;;;;5034497;28;19971;-85
2021/09/18 16:08:28;;;;;;;;;;;;;;;;;;5034621;28;20004;-82
2021/09/18 16:10:54;;;;;;;;;;;;;;;;;;5034212;28;19967;-81
2021/09/18 16:13:19;;;;;;;;;;;;;;;;;;5034609;28;19917;-82
2021/09/18 16:15:45;;;;;;;;;;;;;;;;;;5033272;28;20396;-81
2021/09/18 16:18:10;;;;;;;;;;;;;;;;;;5033223;28;20366;-82
2021/09/18 16:20:36;;;;;;;;;;;;;;;;;;5034525;28;20292;-80
2021/09/18 16:23:01;;;;;;;;;;;;;;;;;;5034198;28;20288;-80
2021/09/18 16:25:27;;;;;;;;;;;;;;;;;;5036743;28;20409;-81
2021/09/18 16:27:53;;;;;;;;;;;;;;;;;;5034981;28;19925;-80
2021/09/18 16:30:18;;;;;;;;;;;;;;;;;;5035868;28;19921;-80
2021/09/18 16:32:44;;;;;;;;;;;;;;;;;;5036167;28;20293;-80
2021/09/18 16:35:10;;;;;;;;;;;;;;;;;;5035953;28;19917;-79
2021/09/18 16:37:36;;;;;;;;;;;;;;;;;;5033986;28;19917;-80
2021/09/18 16:40:03;;;;;;;;;;;;;;;;;;5036683;28;20015;-80
2021/09/18 16:42:29;;;;;;;;;;;;;;;;;;5038851;28;20364;-81
2021/09/18 16:44:55;;;;;;;;;;;;;;;;;;5038238;28;19917;-80
2021/09/18 16:47:28;;;;;;;;;;;;;;;;;;5037000;28;20381;-82
2021/09/18 16:49:53;;;;;;;;;;;;;;;;;;5035425;28;20008;-82
2021/09/18 16:52:19;;;;;;;;;;;;;;;;;;5037541;28;19956;-83
2021/09/18 16:54:44;;;;;;;;;;;;;;;;;;5038627;28;19983;-84
2021/09/18 16:57:10;;;;;;;;;;;;;;;;;;5035211;28;19967;-82
2021/09/18 16:59:35;;;;;;;;;;;;;;;;;;5053371;28;19967;-84
2021/09/18 17:02:01;;;;;;;;;;;;;;;;;;5048972;28;19917;-84
2021/09/18 17:04:26;;;;;;;;;;;;;;;;;;5041926;28;19925;-85
2021/09/18 17:06:52;;;;;;;;;;;;;;;;;;5039781;28;19917;-84
2021/09/18 17:09:17;;;;;;;;;;;;;;;;;;5037100;28;20262;-82
2021/09/18 17:11:43;;;;;;;;;;;;;;;;;;5039166;28;20032;-86
2021/09/18 17:14:08;;;;;;;;;;;;;;;;;;5038248;28;20452;-83
2021/09/18 17:16:34;;;;;;;;;;;;;;;;;;5038177;28;19971;-82
2021/09/18 17:18:59;;;;;;;;;;;;;;;;;;5038197;28;19917;-83
2021/09/18 17:21:27;;;;;;;;;;;;;;;;;;5043281;28;19917;-82
2021/09/18 17:23:53;;;;;;;;;;;;;;;;;;5041627;28;20328;-85